createdAt,value
2023-05-14T00:02:24.029Z,100806.56
2023-05-14T00:05:26.828Z,100813.34
2023-05-14T00:08:29.546Z,100815.13
2023-05-14T00:11:32.097Z,100808.09
2023-05-14T00:14:35.047Z,100802.00
2023-05-14T00:17:38.005Z,100800.81
2023-05-14T00:20:41.093Z,100804.28
2023-05-14T00:23:43.592Z,100800.38
2023-05-14T00:26:46.203Z,100800.31
2023-05-14T00:29:48.729Z,100792.19
2023-05-14T00:32:51.397Z,100801.47
2023-05-14T00:35:53.924Z,100795.72
2023-05-14T00:38:56.409Z,100797.81
2023-05-14T00:41:59.179Z,100796.97
2023-05-14T00:45:01.784Z,100798.66
2023-05-14T00:48:04.789Z,100801.09
2023-05-14T00:51:08.616Z,100795.97
2023-05-14T00:54:11.667Z,100790.88
2023-05-14T00:57:14.236Z,100796.22
2023-05-14T01:00:17.289Z,100798.72
2023-05-14T01:03:19.953Z,100800.78
2023-05-14T01:06:39.754Z,100797.94
2023-05-14T01:09:54.710Z,100792.19
2023-05-14T01:13:16.878Z,100785.19
2023-05-14T01:16:20.226Z,100782.69
2023-05-14T01:19:33.766Z,100772.38
2023-05-14T01:22:36.323Z,100764.56
2023-05-14T01:25:38.881Z,100748.28
2023-05-14T01:28:43.055Z,100750.97
2023-05-14T01:31:47.724Z,100749.94
2023-05-14T01:34:52.280Z,100743.53
2023-05-14T01:37:57.733Z,100738.81
2023-05-14T01:41:01.304Z,100736.16
2023-05-14T01:44:04.387Z,100738.03
2023-05-14T01:47:06.864Z,100735.59
2023-05-14T01:50:10.038Z,100725.09
2023-05-14T01:53:12.601Z,100719.72
2023-05-14T01:56:15.275Z,100719.31
2023-05-14T01:59:17.793Z,100716.25
2023-05-14T02:02:20.438Z,100706.78
2023-05-14T02:05:22.999Z,100705.38
2023-05-14T02:08:25.642Z,100712.75
2023-05-14T02:11:28.178Z,100708.81
2023-05-14T02:14:31.071Z,100707.63
2023-05-14T02:17:33.739Z,100707.00
2023-05-14T02:20:36.191Z,100701.69
2023-05-14T02:23:41.961Z,100689.94
2023-05-14T02:26:45.015Z,100687.84
2023-05-14T02:29:47.731Z,100677.13
2023-05-14T02:32:50.309Z,100680.22
2023-05-14T02:35:52.862Z,100679.56
2023-05-14T02:38:55.436Z,100677.75
2023-05-14T02:41:58.055Z,100687.41
2023-05-14T02:45:00.574Z,100674.00
2023-05-14T02:48:03.187Z,100667.25
2023-05-14T02:51:06.465Z,100669.94
2023-05-14T02:54:09.242Z,100668.44
2023-05-14T02:57:11.908Z,100670.47
2023-05-14T03:00:14.758Z,100665.97
2023-05-14T03:03:19.920Z,100669.66
2023-05-14T03:06:22.682Z,100672.88
2023-05-14T03:09:25.270Z,100670.84
2023-05-14T03:12:27.896Z,100671.41
2023-05-14T03:15:30.552Z,100669.97
2023-05-14T03:18:34.844Z,100669.53
2023-05-14T03:21:37.377Z,100669.97
2023-05-14T03:24:40.674Z,100657.00
2023-05-14T03:27:43.134Z,100666.50
2023-05-14T03:30:45.745Z,100665.28
2023-05-14T03:33:48.398Z,100665.88
2023-05-14T03:36:51.046Z,100667.13
2023-05-14T03:39:53.482Z,100659.34
2023-05-14T03:42:56.225Z,100659.34
2023-05-14T03:45:59.136Z,100664.72
2023-05-14T03:49:01.961Z,100669.09
2023-05-14T03:52:04.974Z,100671.81
2023-05-14T03:55:07.796Z,100686.09
2023-05-14T03:58:14.431Z,100687.69
2023-05-14T04:01:17.091Z,100691.25
2023-05-14T04:04:19.577Z,100684.25
2023-05-14T04:07:22.296Z,100676.84
2023-05-14T04:10:25.090Z,100667.56
2023-05-14T04:13:29.123Z,100660.56
2023-05-14T04:16:31.638Z,100676.22
2023-05-14T04:19:34.243Z,100670.47
2023-05-14T04:22:36.778Z,100666.13
2023-05-14T04:25:39.440Z,100666.34
2023-05-14T04:28:41.926Z,100670.47
2023-05-14T04:31:44.837Z,100667.16
2023-05-14T04:34:47.508Z,100662.84
2023-05-14T04:37:49.930Z,100649.63
2023-05-14T04:40:52.388Z,100650.06
2023-05-14T04:43:56.874Z,100646.34
2023-05-14T04:46:59.379Z,100649.84
2023-05-14T04:50:02.600Z,100650.88
2023-05-14T04:53:05.131Z,100654.81
2023-05-14T04:56:07.713Z,100635.63
2023-05-14T04:59:10.177Z,100640.75
2023-05-14T05:02:12.762Z,100642.00
2023-05-14T05:05:15.542Z,100641.38
2023-05-14T05:08:17.980Z,100644.50
2023-05-14T05:11:21.332Z,100640.97
2023-05-14T05:14:23.750Z,100639.94
2023-05-14T05:17:26.346Z,100635.44
2023-05-14T05:20:28.965Z,100632.34
2023-05-14T05:23:31.444Z,100633.34
2023-05-14T05:26:36.766Z,100621.63
2023-05-14T05:29:39.221Z,100625.72
2023-05-14T05:32:41.784Z,100622.41
2023-05-14T05:35:44.782Z,100628.19
2023-05-14T05:38:47.291Z,100634.59
2023-05-14T05:41:49.837Z,100638.91
2023-05-14T05:44:52.269Z,100629.03
2023-05-14T05:47:54.715Z,100637.91
2023-05-14T05:50:57.528Z,100635.00
2023-05-14T05:54:00.142Z,100624.25
2023-05-14T05:57:02.677Z,100629.41
2023-05-14T06:00:15.263Z,100626.47
2023-05-14T06:03:17.738Z,100629.19
2023-05-14T06:06:20.394Z,100625.19
2023-05-14T06:09:22.891Z,100630.34
2023-05-14T06:12:25.944Z,100626.47
2023-05-14T06:15:28.525Z,100626.59
2023-05-14T06:18:31.123Z,100627.22
2023-05-14T06:21:33.743Z,100633.78
2023-05-14T06:24:36.219Z,100635.66
2023-05-14T06:27:38.691Z,100637.53
2023-05-14T06:30:41.933Z,100634.00
2023-05-14T06:33:45.241Z,100639.53
2023-05-14T06:36:47.720Z,100639.13
2023-05-14T06:39:50.547Z,100633.13
2023-05-14T06:42:53.006Z,100632.97
2023-05-14T06:45:55.687Z,100632.13
2023-05-14T06:48:59.444Z,100631.50
2023-05-14T06:52:02.752Z,100624.03
2023-05-14T06:55:05.553Z,100615.97
2023-05-14T06:58:08.936Z,100617.00
2023-05-14T07:01:11.553Z,100606.03
2023-05-14T07:04:14.055Z,100611.19
2023-05-14T07:07:20.667Z,100601.94
2023-05-14T07:10:23.704Z,100597.16
2023-05-14T07:13:28.655Z,100599.38
2023-05-14T07:16:31.350Z,100593.78
2023-05-14T07:19:33.900Z,100591.59
2023-05-14T07:22:36.382Z,100590.59
2023-05-14T07:25:39.999Z,100584.41
2023-05-14T07:28:42.479Z,100579.16
2023-05-14T07:31:45.115Z,100577.44
2023-05-14T07:34:47.753Z,100577.69
2023-05-14T07:37:50.411Z,100570.44
2023-05-14T07:40:52.874Z,100558.19
2023-05-14T07:43:55.394Z,100558.34
2023-05-14T07:46:57.963Z,100553.44
2023-05-14T07:50:00.575Z,100560.53
2023-05-14T07:53:03.094Z,100568.47
2023-05-14T07:56:06.074Z,100561.78
2023-05-14T07:59:08.636Z,100564.63
2023-05-14T08:02:12.963Z,100562.63
2023-05-14T08:05:15.962Z,100563.84
2023-05-14T08:08:18.549Z,100551.53
2023-05-14T08:11:22.392Z,100547.69
2023-05-14T08:14:24.836Z,100546.22
2023-05-14T08:17:27.450Z,100538.84
2023-05-14T08:20:31.163Z,100538.50
2023-05-14T08:23:33.758Z,100534.31
2023-05-14T08:26:36.487Z,100523.63
2023-05-14T08:29:39.099Z,100523.47
2023-05-14T08:32:42.467Z,100533.00
2023-05-14T08:35:44.990Z,100528.00
2023-05-14T08:38:48.645Z,100526.78
2023-05-14T08:41:52.078Z,100525.84
2023-05-14T08:45:02.909Z,100523.59
2023-05-14T08:48:09.179Z,100517.56
2023-05-14T08:51:12.881Z,100516.97
2023-05-14T08:54:19.777Z,100512.69
2023-05-14T08:57:25.317Z,100507.00
2023-05-14T09:00:28.049Z,100499.59
2023-05-14T09:03:31.538Z,100498.38
2023-05-14T09:06:40.473Z,100498.38
2023-05-14T09:09:45.094Z,100499.59
2023-05-14T09:12:47.628Z,100501.63
2023-05-14T09:15:51.331Z,100499.69
2023-05-14T09:18:54.589Z,100500.50
2023-05-14T09:21:59.166Z,100504.31
2023-05-14T09:25:04.737Z,100490.78
2023-05-14T09:28:09.364Z,100489.28
2023-05-14T09:31:11.885Z,100484.59
2023-05-14T09:34:24.143Z,100474.47
2023-05-14T09:37:28.824Z,100478.91
2023-05-14T09:40:31.281Z,100465.69
2023-05-14T09:43:33.892Z,100455.97
2023-05-14T09:46:36.385Z,100456.53
2023-05-14T09:49:42.519Z,100457.84
2023-05-14T09:52:45.103Z,100471.69
2023-05-14T09:55:47.624Z,100462.59
2023-05-14T09:58:50.185Z,100457.44
2023-05-14T10:01:54.148Z,100456.84
2023-05-14T10:05:01.216Z,100463.28
2023-05-14T10:08:10.153Z,100450.63
2023-05-14T10:11:15.435Z,100452.53
2023-05-14T10:14:25.341Z,100447.25
2023-05-14T10:17:32.065Z,100435.31
2023-05-14T10:20:36.129Z,100432.38
2023-05-14T10:23:40.515Z,100419.31
2023-05-14T10:26:43.198Z,100400.06
2023-05-14T10:29:53.956Z,100389.09
2023-05-14T10:33:07.145Z,100384.53
2023-05-14T10:36:10.353Z,100370.28
2023-05-14T10:39:13.173Z,100374.13
2023-05-14T10:42:36.026Z,100377.06
2023-05-14T10:45:38.551Z,100397.66
2023-05-14T10:48:44.314Z,100400.31
2023-05-14T10:51:49.537Z,100388.50
2023-05-14T10:54:57.138Z,100384.84
2023-05-14T10:58:01.453Z,100383.91
2023-05-14T11:01:06.291Z,100377.59
2023-05-14T11:04:09.268Z,100377.22
2023-05-14T11:07:12.639Z,100373.84
2023-05-14T11:10:17.292Z,100373.59
2023-05-14T11:13:20.090Z,100382.16
2023-05-14T11:16:24.266Z,100375.94
2023-05-14T11:19:26.776Z,100368.09
2023-05-14T11:22:29.337Z,100376.91
2023-05-14T11:25:31.857Z,100362.38
2023-05-14T11:28:34.419Z,100353.34
2023-05-14T11:31:36.900Z,100348.81
2023-05-14T11:34:39.777Z,100357.91
2023-05-14T11:37:42.824Z,100361.06
2023-05-14T11:41:06.230Z,100359.22
2023-05-14T11:44:10.839Z,100365.53
2023-05-14T11:47:13.436Z,100359.78
2023-05-14T11:50:16.852Z,100352.13
2023-05-14T11:53:26.962Z,100355.56
2023-05-14T11:56:29.389Z,100346.91
2023-05-14T11:59:32.676Z,100341.91
2023-05-14T12:02:36.457Z,100342.84
2023-05-14T12:05:40.147Z,100342.16
2023-05-14T12:08:42.703Z,100341.22
2023-05-14T12:11:47.906Z,100333.91
2023-05-14T12:14:51.074Z,100334.34
2023-05-14T12:17:53.951Z,100331.44
2023-05-14T12:21:05.928Z,100324.91
2023-05-14T12:24:20.382Z,100314.84
2023-05-14T12:27:30.139Z,100310.78
2023-05-14T12:30:38.332Z,100296.13
2023-05-14T12:33:41.437Z,100301.31
2023-05-14T12:36:45.432Z,100297.75
2023-05-14T12:39:48.746Z,100297.47
2023-05-14T12:42:51.837Z,100292.63
2023-05-14T12:45:55.768Z,100298.81
2023-05-14T12:48:59.106Z,100290.22
2023-05-14T12:52:19.515Z,100296.50
2023-05-14T12:55:24.540Z,100298.09
2023-05-14T12:58:27.179Z,100279.38
2023-05-14T13:01:29.860Z,100274.22
2023-05-14T13:04:32.422Z,100261.91
2023-05-14T13:07:36.197Z,100249.56
2023-05-14T13:10:38.751Z,100250.63
2023-05-14T13:13:41.448Z,100244.88
2023-05-14T13:16:44.048Z,100236.59
2023-05-14T13:19:46.586Z,100241.47
2023-05-14T13:22:49.121Z,100238.25
2023-05-14T13:25:51.607Z,100234.28
2023-05-14T13:28:54.304Z,100231.03
2023-05-14T13:31:56.812Z,100226.72
2023-05-14T13:34:59.224Z,100217.22
2023-05-14T13:38:01.919Z,100216.06
2023-05-14T13:41:04.823Z,100209.63
2023-05-14T13:44:07.391Z,100207.81
2023-05-14T13:47:09.979Z,100201.47
2023-05-14T13:50:12.725Z,100205.38
2023-05-14T13:53:16.404Z,100190.03
2023-05-14T13:56:19.233Z,100182.72
2023-05-14T13:59:22.103Z,100185.00
2023-05-14T14:02:24.532Z,100167.00
2023-05-14T14:05:28.548Z,100177.44
2023-05-14T14:08:31.361Z,100169.97
2023-05-14T14:11:37.212Z,100179.28
2023-05-14T14:14:41.170Z,100191.50
2023-05-14T14:17:44.151Z,100176.00
2023-05-14T14:20:47.313Z,100179.59
2023-05-14T14:23:50.028Z,100170.06
2023-05-14T14:26:52.625Z,100174.94
2023-05-14T14:29:56.997Z,100168.75
2023-05-14T14:33:01.371Z,100167.31
2023-05-14T14:36:06.023Z,100169.13
2023-05-14T14:39:08.462Z,100164.31
2023-05-14T14:42:11.020Z,100168.88
2023-05-14T14:45:13.626Z,100164.97
2023-05-14T14:48:34.131Z,100158.88
2023-05-14T14:51:36.691Z,100155.91
2023-05-14T14:54:39.082Z,100146.41
2023-05-14T14:57:41.700Z,100152.34
2023-05-14T15:00:44.391Z,100147.75
2023-05-14T15:03:48.408Z,100150.06
2023-05-14T15:06:51.089Z,100147.28
2023-05-14T15:09:53.783Z,100128.06
2023-05-14T15:12:59.944Z,100124.41
2023-05-14T15:16:02.460Z,100113.97
2023-05-14T15:19:05.088Z,100114.34
2023-05-14T15:22:07.742Z,100123.56
2023-05-14T15:25:11.215Z,100117.09
2023-05-14T15:28:14.259Z,100107.00
2023-05-14T15:31:17.137Z,100106.16
2023-05-14T15:34:19.874Z,100103.25
2023-05-14T15:37:25.637Z,100100.84
2023-05-14T15:40:28.168Z,100095.72
2023-05-14T15:43:30.684Z,100107.34
2023-05-14T15:46:33.349Z,100097.03
2023-05-14T15:49:36.005Z,100096.94
2023-05-14T15:52:39.487Z,100105.50
2023-05-14T15:55:42.088Z,100096.91
2023-05-14T15:58:44.718Z,100095.66
2023-05-14T16:01:47.364Z,100089.94
2023-05-14T16:04:49.935Z,100069.78
2023-05-14T16:07:52.514Z,100062.13
2023-05-14T16:10:54.974Z,100041.00
2023-05-14T16:13:58.438Z,100038.44
2023-05-14T16:17:04.347Z,100036.50
2023-05-14T16:20:07.453Z,100028.16
2023-05-14T16:23:09.988Z,100034.81
2023-05-14T16:26:12.501Z,100039.94
2023-05-14T16:29:14.958Z,100042.63
2023-05-14T16:32:17.653Z,100044.03
2023-05-14T16:35:20.351Z,100047.53
2023-05-14T16:38:22.856Z,100051.84
2023-05-14T16:41:25.440Z,100052.66
2023-05-14T16:44:28.029Z,100049.53
2023-05-14T16:47:30.569Z,100043.22
2023-05-14T16:50:33.164Z,100039.19
2023-05-14T16:53:36.214Z,100026.94
2023-05-14T16:56:38.756Z,100012.41
2023-05-14T16:59:41.194Z,100011.72
2023-05-14T17:02:44.092Z,100005.19
2023-05-14T17:05:48.236Z,100004.09
2023-05-14T17:08:51.233Z,100007.56
2023-05-14T17:11:53.747Z,99996.34
2023-05-14T17:14:56.201Z,99995.28
2023-05-14T17:17:58.711Z,99991.44
2023-05-14T17:21:01.557Z,99978.63
2023-05-14T17:24:04.052Z,99983.53
2023-05-14T17:27:07.354Z,99983.41
2023-05-14T17:30:10.303Z,99990.03
2023-05-14T17:33:12.798Z,99996.66
2023-05-14T17:36:15.282Z,99991.28
2023-05-14T17:39:17.806Z,99983.31
2023-05-14T17:42:20.370Z,99967.38
2023-05-14T17:45:23.064Z,99957.03
2023-05-14T17:48:25.930Z,99958.50
2023-05-14T17:51:28.464Z,99965.53
2023-05-14T17:54:30.948Z,99965.69
2023-05-14T17:57:33.383Z,99958.88
2023-05-14T18:00:35.847Z,99952.19
2023-05-14T18:03:38.527Z,99940.94
2023-05-14T18:06:41.229Z,99936.63
2023-05-14T18:09:43.763Z,99936.19
2023-05-14T18:12:46.785Z,99930.13
2023-05-14T18:15:51.649Z,99925.69
2023-05-14T18:18:56.290Z,99940.41
2023-05-14T18:21:58.841Z,99928.38
2023-05-14T18:25:01.510Z,99926.44
2023-05-14T18:28:04.175Z,99927.09
2023-05-14T18:31:06.779Z,99931.81
2023-05-14T18:34:09.298Z,99930.16
2023-05-14T18:37:11.811Z,99937.88
2023-05-14T18:40:18.614Z,99942.41
2023-05-14T18:43:21.766Z,99948.56
2023-05-14T18:46:24.882Z,99937.97
2023-05-14T18:49:27.544Z,99942.34
2023-05-14T18:52:30.063Z,99940.84
2023-05-14T18:55:32.677Z,99946.63
2023-05-14T18:58:35.461Z,99944.31
2023-05-14T19:01:38.046Z,99949.13
2023-05-14T19:04:51.236Z,99955.19
2023-05-14T19:07:54.625Z,99955.56
2023-05-14T19:10:57.081Z,99950.53
2023-05-14T19:14:00.032Z,99943.63
2023-05-14T19:17:03.103Z,99940.25
2023-05-14T19:20:06.556Z,99927.75
2023-05-14T19:23:09.072Z,99917.63
2023-05-14T19:26:11.606Z,99923.13
2023-05-14T19:29:14.122Z,99916.00
2023-05-14T19:32:16.740Z,99916.78
2023-05-14T19:35:19.420Z,99912.34
2023-05-14T19:38:22.166Z,99920.84
2023-05-14T19:41:24.784Z,99919.78
2023-05-14T19:44:27.596Z,99919.56
2023-05-14T19:47:30.720Z,99924.38
2023-05-14T19:50:33.627Z,99913.03
2023-05-14T19:53:36.131Z,99902.91
2023-05-14T19:56:38.671Z,99900.47
2023-05-14T19:59:41.498Z,99904.75
2023-05-14T20:02:44.081Z,99897.41
2023-05-14T20:05:46.594Z,99909.66
2023-05-14T20:08:49.163Z,99903.00
2023-05-14T20:11:51.774Z,99900.00
2023-05-14T20:14:54.520Z,99890.66
2023-05-14T20:17:57.781Z,99879.00
2023-05-14T20:21:00.737Z,99878.91
2023-05-14T20:24:03.463Z,99875.38
2023-05-14T20:27:06.354Z,99870.38
2023-05-14T20:30:09.176Z,99878.75
2023-05-14T20:33:13.403Z,99882.72
2023-05-14T20:36:16.116Z,99870.59
2023-05-14T20:39:18.880Z,99864.28
2023-05-14T20:42:21.345Z,99861.25
2023-05-14T20:45:23.906Z,99859.84
2023-05-14T20:48:26.710Z,99854.47
2023-05-14T20:51:29.287Z,99849.84
2023-05-14T20:54:31.681Z,99859.41
2023-05-14T20:57:34.247Z,99868.25
2023-05-14T21:00:36.774Z,99860.69
2023-05-14T21:03:39.316Z,99854.13
2023-05-14T21:06:41.921Z,99851.81
2023-05-14T21:09:46.495Z,99844.47
2023-05-14T21:12:48.992Z,99835.72
2023-05-14T21:15:51.624Z,99832.09
2023-05-14T21:18:54.160Z,99828.25
2023-05-14T21:21:56.670Z,99828.81
2023-05-14T21:24:59.119Z,99832.19
2023-05-14T21:28:01.554Z,99816.94
2023-05-14T21:31:04.046Z,99817.50
2023-05-14T21:34:06.466Z,99813.78
2023-05-14T21:37:09.018Z,99810.03
2023-05-14T21:40:15.084Z,99805.25
2023-05-14T21:43:17.527Z,99809.44
2023-05-14T21:46:20.019Z,99800.59
2023-05-14T21:49:22.536Z,99787.63
2023-05-14T21:52:25.176Z,99773.66
2023-05-14T21:55:29.046Z,99756.50
2023-05-14T21:58:31.694Z,99755.44
2023-05-14T22:01:42.174Z,99744.28
2023-05-14T22:04:53.942Z,99744.03
2023-05-14T22:07:57.739Z,99746.59
2023-05-14T22:11:00.330Z,99747.75
2023-05-14T22:14:02.806Z,99742.03
2023-05-14T22:17:06.464Z,99734.13
2023-05-14T22:20:12.108Z,99733.88
2023-05-14T22:23:14.941Z,99750.91
2023-05-14T22:26:17.483Z,99752.53
2023-05-14T22:29:19.967Z,99746.56
2023-05-14T22:32:22.480Z,99753.59
2023-05-14T22:35:25.161Z,99744.00
2023-05-14T22:38:27.793Z,99741.56
2023-05-14T22:41:30.815Z,99747.16
2023-05-14T22:44:33.237Z,99742.03
2023-05-14T22:47:35.909Z,99742.03
2023-05-14T22:50:38.384Z,99738.28
2023-05-14T22:53:40.822Z,99730.72
2023-05-14T22:56:43.302Z,99733.84
2023-05-14T22:59:45.834Z,99728.63
2023-05-14T23:02:48.369Z,99727.31
2023-05-14T23:05:52.156Z,99729.78
2023-05-14T23:08:54.684Z,99732.22
2023-05-14T23:11:57.111Z,99729.53
2023-05-14T23:14:59.678Z,99733.53
2023-05-14T23:18:02.183Z,99742.97
2023-05-14T23:21:04.645Z,99740.88
2023-05-14T23:24:07.443Z,99736.09
2023-05-14T23:27:11.593Z,99729.78
2023-05-14T23:30:14.234Z,99732.47
2023-05-14T23:33:16.714Z,99728.19
2023-05-14T23:36:19.267Z,99716.97
2023-05-14T23:39:22.016Z,99702.28
2023-05-14T23:42:24.827Z,99698.19
2023-05-14T23:45:28.148Z,99682.06
2023-05-14T23:48:31.184Z,99687.00
2023-05-14T23:51:33.814Z,99688.63
2023-05-14T23:54:36.408Z,99690.25
2023-05-14T23:57:40.261Z,99684.16
